Latest Weather Observations for Lord Howe Island Windy Point

IDN60801

Issued at 11:02 am EST Thursday 27 April 2017 (issued every 30 minutes, with the page automatically refreshed every 10 minutes)

About weather observations | Map of weather stations | Latest weather observations for NSW | Other Formats
Station Details ID: 200715 Name: LORD HOWE ISLAND WINDY POINT Lat: -31.54 Lon: 159.07 Height: 4.0 m
Data from the previous 72 hours. | See also: Recent months for locations in New South Wales
Date/Time
EST
Temp
°C
App
Temp
°C
Dew
Point
°C
Rel
Hum
%
Delta-T
°C
Wind Press
QNH
hPa
Press
MSL
hPa
Rain since
9am
mm
Dir  Spd
km/h
Gust
km/h
Spd
kts
Gust
kts
27/11:00am - - - - - W 28 33 15 18 - - -
27/10:30am - - - - - W 24 30 13 16 - - -
27/10:00am - - - - - W 26 30 14 16 - - -
27/09:30am - - - - - W 28 32 15 17 - - -
27/09:00am - - - - - W 24 28 13 15 - - -
27/08:30am - - - - - W 24 28 13 15 - - -
27/08:00am - - - - - W 22 26 12 14 - - -
27/07:30am - - - - - W 22 26 12 14 - - -
27/07:00am - - - - - W 24 30 13 16 - - -
27/06:30am - - - - - W 24 28 13 15 - - -
27/06:00am - - - - - W 28 32 15 17 - - -
27/05:30am - - - - - W 30 35 16 19 - - -
27/05:00am - - - - - W 28 33 15 18 - - -
27/04:30am - - - - - W 30 35 16 19 - - -
27/04:00am - - - - - WSW 20 26 11 14 - - -
27/03:30am - - - - - WSW 32 39 17 21 - - -
27/03:00am - - - - - SW 37 48 20 26 - - -
27/02:30am - - - - - WSW 43 57 23 31 - - -
27/02:21am - - - - - WSW 35 57 19 31 - - -
27/02:00am - - - - - WSW 20 39 11 21 - - -
27/01:30am - - - - - WSW 24 30 13 16 - - -
27/01:00am - - - - - WSW 28 33 15 18 - - -
27/12:30am - - - - - WSW 43 50 23 27 - - -
27/12:26am - - - - - WSW 44 61 24 33 - - -
27/12:15am - - - - - NW 48 83 26 45 - - -
27/12:14am - - - - - NW 48 83 26 45 - - -
27/12:01am - - - - - NW 43 63 23 34 - - -
27/12:00am - - - - - NW 41 57 22 31 - - -
 
Date/Time
EST
Temp
°C
App
Temp
°C
Dew
Point
°C
Rel
Hum
%
Delta-T
°C
Wind Press
QNH
hPa
Press
MSL
hPa
Rain since
9am
mm
Dir  Spd
km/h
Gust
km/h
Spd
kts
Gust
kts
26/11:46pm - - - - - NW 39 57 21 31 - - -
26/11:30pm - - - - - NW 43 57 23 31 - - -
26/11:00pm - - - - - NW 35 57 19 31 - - -
26/10:43pm - - - - - NNW 26 50 14 27 - - -
26/10:30pm - - - - - NW 24 41 13 22 - - -
26/10:02pm - - - - - NW 28 48 15 26 - - -
26/10:00pm - - - - - NW 26 48 14 26 - - -
26/09:30pm - - - - - NW 32 65 17 35 - - -
26/09:29pm - - - - - NW 30 57 16 31 - - -
26/09:00pm - - - - - NW 24 41 13 22 - - -
26/08:30pm - - - - - NW 26 41 14 22 - - -
26/08:00pm - - - - - NW 28 48 15 26 - - -
26/07:40pm - - - - - NW 28 61 15 33 - - -
26/07:30pm - - - - - NW 20 33 11 18 - - -
26/07:17pm - - - - - NW 28 50 15 27 - - -
26/07:00pm - - - - - NW 28 44 15 24 - - -
26/06:47pm - - - - - NW 28 46 15 25 - - -
26/06:30pm - - - - - NW 26 43 14 23 - - -
26/06:00pm - - - - - NW 20 33 11 18 - - -
26/05:30pm - - - - - NW 17 30 9 16 - - -
26/05:00pm - - - - - NW 17 24 9 13 - - -
26/04:30pm - - - - - NW 20 32 11 17 - - -
26/04:00pm - - - - - NW 20 32 11 17 - - -
26/03:30pm - - - - - NW 20 26 11 14 - - -
26/03:00pm - - - - - NW 20 32 11 17 - - -
26/02:30pm - - - - - NW 19 28 10 15 - - -
26/02:00pm - - - - - NW 17 33 9 18 - - -
26/01:30pm - - - - - NW 17 28 9 15 - - -
26/01:00pm - - - - - NW 19 32 10 17 - - -
26/12:30pm - - - - - NW 15 30 8 16 - - -
26/12:00pm - - - - - NW 22 33 12 18 - - -
26/11:30am - - - - - NW 17 30 9 16 - - -
26/11:00am - - - - - NW 19 33 10 18 - - -
26/10:30am - - - - - NW 20 35 11 19 - - -
26/10:00am - - - - - NW 19 32 10 17 - - -
26/09:30am - - - - - NW 20 32 11 17 - - -
26/09:00am - - - - - NW 13 22 7 12 - - -
26/08:30am - - - - - NW 9 15 5 8 - - -
26/08:00am - - - - - NW 13 24 7 13 - - -
26/07:30am - - - - - NW 13 26 7 14 - - -
26/07:00am - - - - - NW 13 20 7 11 - - -
26/06:30am - - - - - N 9 19 5 10 - - -
26/06:00am - - - - - NNE 13 20 7 11 - - -
26/05:30am - - - - - NNE 13 30 7 16 - - -
26/05:00am - - - - - NNE 15 28 8 15 - - -
26/04:30am - - - - - NNE 15 24 8 13 - - -
26/04:00am - - - - - NNE 13 32 7 17 - - -
26/03:30am - - - - - NNE 11 24 6 13 - - -
26/03:00am - - - - - N 13 26 7 14 - - -
26/02:30am - - - - - NNE 13 24 7 13 - - -
26/02:00am - - - - - NNE 15 28 8 15 - - -
26/01:30am - - - - - NNE 15 24 8 13 - - -
26/01:00am - - - - - NNE 17 32 9 17 - - -
26/12:30am - - - - - NNE 17 32 9 17 - - -
26/12:00am - - - - - NNE 15 22 8 12 - - -
 
Date/Time
EST
Temp
°C
App
Temp
°C
Dew
Point
°C
Rel
Hum
%
Delta-T
°C
Wind Press
QNH
hPa
Press
MSL
hPa
Rain since
9am
mm
Dir  Spd
km/h
Gust
km/h
Spd
kts
Gust
kts
25/11:30pm - - - - - NNE 15 28 8 15 - - -
25/11:00pm - - - - - NNE 19 33 10 18 - - -
25/10:30pm - - - - - NNE 19 33 10 18 - - -
25/10:00pm - - - - - NNE 19 37 10 20 - - -
25/09:30pm - - - - - N 19 35 10 19 - - -
25/09:00pm - - - - - NNE 20 35 11 19 - - -
25/08:30pm - - - - - NNE 17 37 9 20 - - -
25/08:00pm - - - - - NNE 13 28 7 15 - - -
25/07:30pm - - - - - NNE 9 28 5 15 - - -
25/07:00pm - - - - - NNE 13 28 7 15 - - -
25/06:30pm - - - - - NNE 11 20 6 11 - - -
25/06:00pm - - - - - NNE 9 17 5 9 - - -
25/05:30pm - - - - - NNE 15 28 8 15 - - -
25/05:00pm - - - - - NNE 15 24 8 13 - - -
25/04:30pm - - - - - NE 13 20 7 11 - - -
25/04:00pm - - - - - E 11 20 6 11 - - -
25/03:30pm - - - - - E 11 22 6 12 - - -
25/03:00pm - - - - - ENE 11 20 6 11 - - -
25/02:30pm - - - - - ENE 13 22 7 12 - - -
25/02:00pm - - - - - E 13 22 7 12 - - -
25/01:30pm - - - - - ENE 13 30 7 16 - - -
25/01:00pm - - - - - E 17 28 9 15 - - -
25/12:30pm - - - - - ENE 15 28 8 15 - - -
25/12:00pm - - - - - NE 13 22 7 12 - - -
25/11:30am - - - - - E 19 28 10 15 - - -
25/11:00am - - - - - ENE 13 28 7 15 - - -
25/10:30am - - - - - E 20 35 11 19 - - -
25/10:00am - - - - - ENE 22 33 12 18 - - -
25/09:30am - - - - - ENE 17 20 9 11 - - -
25/09:00am - - - - - ENE 19 24 10 13 - - -
25/08:30am - - - - - ENE 17 22 9 12 - - -
25/08:00am - - - - - ENE 15 19 8 10 - - -
25/07:30am - - - - - ENE 11 15 6 8 - - -
25/07:00am - - - - - ENE 11 15 6 8 - - -
25/06:30am - - - - - ENE 9 15 5 8 - - -
25/06:00am - - - - - ENE 11 15 6 8 - - -
25/05:30am - - - - - ENE 11 15 6 8 - - -
25/05:00am - - - - - ENE 7 9 4 5 - - -
25/04:30am - - - - - ENE 9 13 5 7 - - -
25/04:00am - - - - - E 2 7 1 4 - - -
25/03:30am - - - - - ESE 2 7 1 4 - - -
25/03:00am - - - - - E 4 7 2 4 - - -
25/02:30am - - - - - E 15 19 8 10 - - -
25/02:00am - - - - - ESE 6 9 3 5 - - -
25/01:30am - - - - - ESE 9 15 5 8 - - -
25/01:00am - - - - - ESE 17 20 9 11 - - -
25/12:30am - - - - - ESE 13 17 7 9 - - -
25/12:00am - - - - - ESE 11 17 6 9 - - -
 
Date/Time
EST
Temp
°C
App
Temp
°C
Dew
Point
°C
Rel
Hum
%
Delta-T
°C
Wind Press
QNH
hPa
Press
MSL
hPa
Rain since
9am
mm
Dir  Spd
km/h
Gust
km/h
Spd
kts
Gust
kts
24/11:30pm - - - - - ESE 13 20 7 11 - - -
24/11:00pm - - - - - ESE 15 20 8 11 - - -
24/10:30pm - - - - - ESE 13 24 7 13 - - -
24/10:00pm - - - - - ESE 17 24 9 13 - - -
24/09:30pm - - - - - ESE 15 20 8 11 - - -
24/09:00pm - - - - - ESE 20 30 11 16 - - -
24/08:30pm - - - - - ESE 20 28 11 15 - - -
24/08:00pm - - - - - ESE 22 30 12 16 - - -
24/07:30pm - - - - - ESE 15 24 8 13 - - -
24/07:00pm - - - - - ESE 13 22 7 12 - - -
24/06:30pm - - - - - ESE 13 20 7 11 - - -
24/06:00pm - - - - - ESE 15 20 8 11 - - -
24/05:30pm - - - - - ESE 17 28 9 15 - - -
24/05:00pm - - - - - ESE 17 26 9 14 - - -
24/04:30pm - - - - - SE 17 28 9 15 - - -
24/04:00pm - - - - - ESE 19 28 10 15 - - -
24/03:30pm - - - - - ESE 17 24 9 13 - - -
24/03:00pm - - - - - ESE 17 24 9 13 - - -
24/02:30pm - - - - - SE 15 24 8 13 - - -
24/02:00pm - - - - - ESE 19 30 10 16 - - -
24/01:30pm - - - - - ESE 15 26 8 14 - - -
24/01:00pm - - - - - ESE 17 26 9 14 - - -
24/12:30pm - - - - - E 24 33 13 18 - - -
24/12:00pm - - - - - E 22 35 12 19 - - -
24/11:30am - - - - - ESE 22 35 12 19 - - -

Other Formats:

Comma delimited format used in spreadsheet applications
http://www.bom.gov.au/fwo/IDN60801/IDN60801.95995.axf

JavaScript Object Notation format (JSON) in row-major order
http://www.bom.gov.au/fwo/IDN60801/IDN60801.95995.json